Time;durP1;ratioP1;P1;durP2;ratioP2;P2;SDS_P1;SDS_P2;PMS_P1;PMS_P2;Temp;Humidity;BMP_temperature;BMP_pressure;BME280_temperature;BME280_humidity;BME280_pressure;Samples;Min_cycle;Max_cycle;Signal;HPM_P1;HPM_P2
2022/05/24 00:02:21;;;;;;;10.25;2.70;;;;;;;14.14;48.00;99451.56;5014952;28;20439;-70
2022/05/24 00:04:48;;;;;;;6.72;2.80;;;;;;;14.10;47.95;99445.78;5014276;28;20052;-69
2022/05/24 00:07:15;;;;;;;5.47;2.75;;;;;;;14.20;48.08;99439.94;5014768;28;20057;-69
2022/05/24 00:09:42;;;;;;;8.02;2.42;;;;;;;14.16;48.05;99434.13;5014249;28;20161;-70
2022/05/24 00:12:08;;;;;;;7.07;2.70;;;;;;;14.17;48.01;99438.47;5014625;28;20140;-69
2022/05/24 00:17:20;;;;;;;6.20;3.05;;;;;;;14.01;48.49;99436.28;5015064;28;20144;-69
2022/05/24 00:19:46;;;;;;;6.72;2.42;;;;;;;14.13;48.43;99437.25;5015005;28;20092;-69
2022/05/24 00:22:13;;;;;;;12.30;2.33;;;;;;;14.01;48.57;99436.28;5014660;28;20077;-69
2022/05/24 00:24:40;;;;;;;9.63;3.35;;;;;;;13.87;49.06;99434.66;5014270;28;20057;-69
2022/05/24 00:27:07;;;;;;;9.13;3.03;;;;;;;13.86;49.08;99431.16;5013929;28;20081;-69
2022/05/24 00:29:33;;;;;;;8.13;3.30;;;;;;;13.88;49.43;99429.09;5014087;28;20046;-69
2022/05/24 00:32:00;;;;;;;5.13;2.70;;;;;;;13.90;49.00;99431.56;5014789;28;20493;-70
2022/05/24 00:34:28;;;;;;;6.40;2.80;;;;;;;13.87;48.85;99431.97;5014101;28;20092;-69
2022/05/24 00:36:54;;;;;;;7.15;3.00;;;;;;;13.91;49.24;99425.97;5015100;28;20490;-70
2022/05/24 00:39:20;;;;;;;11.93;2.40;;;;;;;13.91;49.34;99430.50;5014329;28;20080;-69
2022/05/24 00:42:21;;;;;;;7.95;2.67;;;;;;;13.84;49.35;99430.56;5014479;28;20502;-70
2022/05/24 00:45:05;;;;;;;8.85;2.75;;;;;;;13.89;49.65;99432.59;5013813;28;20058;-70
2022/05/24 00:47:53;;;;;;;8.70;2.60;;;;;;;13.85;49.55;99432.19;5013803;28;20081;-70
2022/05/24 00:50:25;;;;;;;9.85;2.15;;;;;;;13.92;49.28;99424.09;5014014;28;20092;-70
2022/05/24 00:53:20;;;;;;;7.07;2.97;;;;;;;13.83;49.49;99421.63;5014224;28;20100;-70
2022/05/24 00:55:54;;;;;;;7.85;3.15;;;;;;;13.77;49.68;99433.28;5014337;28;20508;-70
2022/05/24 00:58:35;;;;;;;6.78;2.80;;;;;;;13.73;50.13;99426.59;5014122;28;20100;-70
2022/05/24 01:01:12;;;;;;;5.38;2.35;;;;;;;13.74;50.09;99419.38;5014051;28;20060;-70
2022/05/24 01:03:39;;;;;;;6.80;2.58;;;;;;;13.71;50.11;99426.00;5013899;28;20565;-70
2022/05/24 01:09:49;;;;;;;10.05;2.80;;;;;;;13.64;50.55;99424.38;5014098;28;20136;-70
2022/05/24 01:12:25;;;;;;;6.45;2.80;;;;;;;13.66;50.74;99424.97;5014179;28;20085;-70
2022/05/24 01:14:54;;;;;;;7.38;2.58;;;;;;;13.78;50.34;99421.44;5013854;28;20085;-70
2022/05/24 01:17:21;;;;;;;10.45;2.78;;;;;;;13.69;50.67;99419.16;5013768;28;20561;-70
2022/05/24 01:19:48;;;;;;;6.47;2.65;;;;;;;13.65;50.65;99421.44;5013938;28;20149;-70
2022/05/24 01:22:40;;;;;;;8.98;2.58;;;;;;;13.67;50.68;99411.28;5017207;28;20077;-70
2022/05/24 01:25:36;;;;;;;10.23;3.17;;;;;;;13.64;50.85;99411.72;5017787;28;20489;-70
2022/05/24 01:28:09;;;;;;;7.75;2.83;;;;;;;13.58;50.96;99426.03;5017435;28;20100;-70
2022/05/24 01:30:36;;;;;;;4.07;2.15;;;;;;;13.61;51.09;99430.19;5017701;28;20140;-70
2022/05/24 01:38:33;;;;;;;13.30;3.28;;;;;;;13.59;51.32;99419.59;5017490;28;20050;-70
2022/05/24 01:41:01;;;;;;;11.63;2.83;;;;;;;13.52;51.54;99430.38;5017175;28;20141;-70
2022/05/24 01:43:28;;;;;;;12.82;2.33;;;;;;;13.49;51.61;99427.28;5017212;28;20549;-70
2022/05/24 01:46:01;;;;;;;7.03;2.50;;;;;;;13.55;51.55;99429.16;5016913;28;20057;-70
2022/05/24 01:48:35;;;;;;;11.25;2.50;;;;;;;13.53;51.74;99425.84;5018097;28;20108;-71
2022/05/24 01:51:04;;;;;;;7.47;2.40;;;;;;;13.53;52.06;99439.31;5016945;28;20092;-70
2022/05/24 01:53:42;;;;;;;4.85;2.53;;;;;;;13.57;52.53;99436.00;5016804;28;20136;-70
2022/05/24 01:56:36;;;;;;;7.05;2.83;;;;;;;13.46;53.42;99433.13;5016960;28;20121;-70
2022/05/24 01:59:04;;;;;;;12.35;2.78;;;;;;;13.56;53.43;99433.50;5017192;28;20446;-70
2022/05/24 02:01:40;;;;;;;8.48;2.60;;;;;;;13.50;53.57;99435.19;5016954;28;20145;-70
2022/05/24 02:04:06;;;;;;;8.82;2.65;;;;;;;13.53;53.67;99436.63;5016499;28;20081;-70
2022/05/24 02:06:34;;;;;;;7.75;2.60;;;;;;;13.49;53.62;99438.06;5016619;28;20046;-70
2022/05/24 02:09:02;;;;;;;9.73;2.97;;;;;;;13.49;53.75;99432.69;5016755;28;20478;-70
2022/05/24 02:11:31;;;;;;;12.90;7.10;;;;;;;13.51;54.03;99436.00;5017427;28;20070;-70
2022/05/24 02:14:14;;;;;;;9.85;5.25;;;;;;;13.48;54.35;99433.72;5016935;28;20092;-70
2022/05/24 02:17:09;;;;;;;6.85;3.47;;;;;;;13.37;54.86;99431.69;5016731;28;20089;-70
2022/05/24 02:19:41;;;;;;;5.97;2.97;;;;;;;13.32;55.16;99435.84;5016695;28;20073;-70
2022/05/24 02:22:12;;;;;;;15.38;3.05;;;;;;;13.41;55.16;99436.44;5016759;28;20149;-70
2022/05/24 02:24:38;;;;;;;7.32;2.80;;;;;;;13.34;55.51;99436.44;4999245;28;20417;-70
2022/05/24 02:27:05;;;;;;;11.43;2.80;;;;;;;13.39;55.40;99434.97;5015981;28;20096;-70
2022/05/24 02:29:32;;;;;;;10.20;3.15;;;;;;;13.31;55.80;99433.34;5016173;28;20140;-70
2022/05/24 02:31:58;;;;;;;6.93;2.33;;;;;;;13.32;55.81;99433.16;5016289;28;20085;-70
2022/05/24 02:34:25;;;;;;;10.48;3.10;;;;;;;13.37;55.72;99434.38;5016642;28;20061;-70
2022/05/24 02:36:51;;;;;;;6.90;2.83;;;;;;;13.39;55.68;99429.59;5017163;28;20057;-70
2022/05/24 02:39:18;;;;;;;5.35;3.15;;;;;;;13.38;55.15;99446.78;5016218;28;20562;-70
2022/05/24 02:41:44;;;;;;;6.28;2.47;;;;;;;13.29;55.73;99438.13;5015927;28;20126;-70
2022/05/24 02:44:14;;;;;;;6.88;2.65;;;;;;;13.37;55.83;99439.75;5016155;28;20411;-70
2022/05/24 02:46:43;;;;;;;6.82;2.88;;;;;;;13.39;55.70;99443.06;5016909;28;20458;-70
2022/05/24 02:49:10;;;;;;;13.27;2.78;;;;;;;13.31;56.08;99441.41;5016167;28;20145;-70
2022/05/24 02:51:38;;;;;;;7.25;2.30;;;;;;;13.27;56.92;99440.19;5015940;28;20061;-70
2022/05/24 02:54:06;;;;;;;12.13;3.00;;;;;;;13.21;57.31;99439.16;5016219;28;20057;-70
2022/05/24 02:56:32;;;;;;;4.57;2.75;;;;;;;13.18;57.85;99441.44;5015834;28;20149;-70
2022/05/24 02:58:59;;;;;;;12.07;3.13;;;;;;;13.28;58.29;99436.44;5015865;28;20496;-70
2022/05/24 03:01:28;;;;;;;5.70;2.70;;;;;;;13.30;58.87;99432.50;5015523;28;20136;-70
2022/05/24 03:03:56;;;;;;;8.13;3.45;;;;;;;13.27;59.69;99432.94;5016176;28;20202;-71
2022/05/24 03:06:23;;;;;;;10.38;3.08;;;;;;;13.15;60.27;99434.63;5015951;28;20073;-71
2022/05/24 03:14:23;;;;;;;6.60;3.00;;;;;;;12.94;62.39;99434.81;5015790;28;20068;-71
2022/05/24 03:16:56;;;;;;;9.40;2.80;;;;;;;12.86;63.52;99433.16;5015771;28;20095;-71
2022/05/24 03:19:23;;;;;;;5.65;2.72;;;;;;;12.80;63.53;99436.66;5015719;28;20405;-71
2022/05/24 03:21:50;;;;;;;11.75;3.28;;;;;;;12.87;64.15;99432.13;5015155;28;20141;-70
2022/05/24 03:24:17;;;;;;;11.07;3.90;;;;;;;12.88;64.35;99431.91;5015376;28;20052;-70
2022/05/24 03:26:44;;;;;;;11.05;3.40;;;;;;;12.92;64.63;99439.59;5014971;28;20092;-70
2022/05/24 03:29:10;;;;;;;10.80;2.92;;;;;;;12.86;64.90;99443.91;5016118;28;20077;-70
2022/05/24 03:31:37;;;;;;;14.05;3.28;;;;;;;12.80;65.32;99439.34;5015649;28;20149;-70
2022/05/24 03:34:04;;;;;;;6.13;3.25;;;;;;;12.87;65.50;99448.28;5015964;28;20077;-70
2022/05/24 03:36:31;;;;;;;8.75;3.60;;;;;;;12.78;66.04;99444.97;5015480;28;20096;-70
2022/05/24 03:38:58;;;;;;;10.07;3.50;;;;;;;12.74;65.84;99449.09;5015692;28;20053;-70
2022/05/24 03:41:24;;;;;;;9.32;3.22;;;;;;;12.72;66.00;99447.59;5015324;28;20140;-70
2022/05/24 03:43:51;;;;;;;11.70;3.45;;;;;;;12.73;66.26;99449.25;5015437;28;20085;-71
2022/05/24 03:46:17;;;;;;;6.70;3.20;;;;;;;12.73;66.05;99444.72;5015601;28;20073;-71
2022/05/24 03:48:44;;;;;;;7.22;3.13;;;;;;;12.78;66.32;99444.97;5015018;28;20061;-71
2022/05/24 03:51:10;;;;;;;5.72;3.38;;;;;;;12.92;66.23;99453.03;5015667;28;20140;-71
2022/05/24 03:53:36;;;;;;;10.35;3.20;;;;;;;12.90;66.37;99449.72;5015294;28;20494;-70
2022/05/24 03:56:03;;;;;;;4.40;3.17;;;;;;;12.90;66.12;99461.31;5015998;28;20463;-71
2022/05/24 03:58:30;;;;;;;5.65;3.42;;;;;;;12.89;66.48;99467.75;5015514;28;20481;-71
2022/05/24 04:00:57;;;;;;;9.93;3.80;;;;;;;12.95;67.04;99464.22;5015800;28;20540;-70
2022/05/24 04:03:24;;;;;;;8.40;3.92;;;;;;;12.81;68.96;99474.16;5015658;28;20058;-71
2022/05/24 04:05:50;;;;;;;18.33;4.28;;;;;;;12.62;70.66;99470.34;5015703;28;20085;-70
2022/05/24 04:08:19;;;;;;;8.00;4.03;;;;;;;12.55;71.54;99463.31;5014983;28;20053;-71
2022/05/24 04:10:46;;;;;;;7.80;4.03;;;;;;;12.45;72.64;99462.88;5015444;28;20050;-70
2022/05/24 04:13:13;;;;;;;11.52;4.43;;;;;;;12.38;73.31;99466.41;5015196;28;20080;-70
2022/05/24 04:15:39;;;;;;;9.93;4.22;;;;;;;12.39;73.60;99464.53;4996772;28;20099;-70
2022/05/24 04:18:06;;;;;;;8.57;4.47;;;;;;;12.35;73.92;99474.88;5014942;28;20156;-70
2022/05/24 04:20:32;;;;;;;9.27;4.82;;;;;;;12.37;74.31;99478.16;5015900;28;20120;-70
2022/05/24 04:22:59;;;;;;;7.35;4.82;;;;;;;12.41;74.26;99473.19;5015205;28;20078;-70
2022/05/24 04:25:26;;;;;;;11.43;4.95;;;;;;;12.40;74.79;99472.38;5015189;28;20153;-70
2022/05/24 04:27:54;;;;;;;11.68;5.07;;;;;;;12.37;75.33;99483.53;5014544;28;20104;-70
2022/05/24 04:30:21;;;;;;;11.80;5.72;;;;;;;12.52;75.02;99477.16;5014855;28;20493;-70
2022/05/24 04:32:47;;;;;;;7.38;5.22;;;;;;;12.61;75.34;99490.22;5014662;28;20050;-70
2022/05/24 04:35:14;;;;;;;12.90;5.53;;;;;;;12.61;76.11;99494.78;5014629;28;20076;-70
2022/05/24 04:37:40;;;;;;;7.47;5.25;;;;;;;12.62;76.57;99497.25;5014500;28;20050;-70
2022/05/24 04:40:07;;;;;;;14.90;5.97;;;;;;;12.64;77.13;99505.13;5014574;28;20480;-70
2022/05/24 04:42:33;;;;;;;12.75;6.35;;;;;;;12.67;77.19;99509.28;5015090;28;20470;-70
2022/05/24 04:45:06;;;;;;;9.63;5.43;;;;;;;12.67;78.07;99499.34;5015000;28;20119;-70
2022/05/24 04:47:33;;;;;;;10.25;6.25;;;;;;;12.70;79.45;99498.94;5014798;28;20053;-70
2022/05/24 04:50:03;;;;;;;11.65;6.30;;;;;;;12.48;81.58;99498.25;5014520;28;20139;-70
2022/05/24 04:52:36;;;;;;;8.88;6.45;;;;;;;12.46;83.70;99489.56;5014769;28;20085;-70
2022/05/24 04:55:06;;;;;;;9.32;6.78;;;;;;;12.47;83.92;99485.84;5014302;28;20133;-69
2022/05/24 04:57:32;;;;;;;16.08;7.10;;;;;;;12.45;84.15;99492.44;5014500;28;20092;-69
2022/05/24 04:59:59;;;;;;;12.75;7.13;;;;;;;12.41;85.54;99487.47;5014558;28;20089;-69
2022/05/24 05:02:26;;;;;;;14.20;7.38;;;;;;;12.43;86.45;99489.97;5014162;28;20073;-69
2022/05/24 05:04:53;;;;;;;9.70;7.10;;;;;;;12.47;86.30;99496.59;5014249;28;20130;-69
2022/05/24 05:07:20;;;;;;;13.55;6.93;;;;;;;12.52;87.08;99490.63;5013743;28;20049;-70
2022/05/24 05:09:50;;;;;;;12.38;7.47;;;;;;;12.51;87.13;99491.66;5014081;28;20103;-69
2022/05/24 05:12:18;;;;;;;8.85;7.03;;;;;;;12.55;87.22;99495.59;5014819;28;20054;-70
2022/05/24 05:14:45;;;;;;;16.30;7.97;;;;;;;12.49;87.89;99494.56;5014730;28;20046;-70
2022/05/24 05:17:12;;;;;;;13.30;7.05;;;;;;;12.46;88.30;99503.03;5013984;28;20050;-69
2022/05/24 05:19:39;;;;;;;13.55;8.07;;;;;;;12.58;88.21;99511.31;5013986;28;20080;-70
2022/05/24 05:22:07;;;;;;;13.45;8.35;;;;;;;12.64;88.09;99524.81;5014286;28;20089;-70
2022/05/24 05:24:34;;;;;;;9.90;7.72;;;;;;;12.60;88.23;99525.41;5014197;28;20060;-70
2022/05/24 05:27:01;;;;;;;9.88;7.65;;;;;;;12.53;87.71;99535.34;5013880;28;20057;-70
2022/05/24 05:32:26;;;;;;;11.65;8.95;;;;;;;12.53;87.80;99541.53;5014036;28;20064;-70
2022/05/24 05:34:53;;;;;;;23.48;9.68;;;;;;;12.59;87.86;99545.25;5014542;28;20085;-70
2022/05/24 05:37:20;;;;;;;13.60;10.60;;;;;;;12.59;87.58;99551.50;5013975;28;20100;-70
2022/05/24 05:39:46;;;;;;;14.55;10.35;;;;;;;12.56;86.92;99553.75;5013935;28;20132;-69
2022/05/24 05:42:13;;;;;;;11.77;8.93;;;;;;;12.49;86.77;99561.81;5013602;28;20054;-70
2022/05/24 05:44:40;;;;;;;13.68;10.43;;;;;;;12.48;86.86;99562.00;5013738;28;20085;-69
2022/05/24 05:47:07;;;;;;;19.80;10.45;;;;;;;12.46;86.30;99566.75;5014436;28;20050;-69
2022/05/24 05:49:34;;;;;;;13.63;9.88;;;;;;;12.56;85.48;99568.03;5014700;28;20490;-71
2022/05/24 05:52:00;;;;;;;12.95;9.18;;;;;;;12.60;85.75;99579.22;5014927;28;20050;-72
2022/05/24 05:54:27;;;;;;;12.18;8.85;;;;;;;12.65;84.84;99584.81;5015394;28;20176;-72
2022/05/24 05:56:53;;;;;;;10.50;9.40;;;;;;;12.68;84.81;99587.13;5014719;28;20046;-72
2022/05/24 05:59:22;;;;;;;11.18;8.75;;;;;;;12.68;85.04;99594.34;5015426;28;20157;-72
2022/05/24 06:01:49;;;;;;;10.75;8.75;;;;;;;12.72;84.11;99604.50;5015358;28;20081;-72
2022/05/24 06:04:16;;;;;;;8.80;7.55;;;;;;;12.81;84.48;99597.97;5014479;28;20096;-72
2022/05/24 06:06:45;;;;;;;13.10;8.82;;;;;;;12.97;83.26;99601.31;5015435;28;20092;-72
2022/05/24 06:09:12;;;;;;;13.45;10.50;;;;;;;12.95;83.03;99603.38;5017772;28;20110;-73
2022/05/24 06:11:40;;;;;;;16.17;8.82;;;;;;;13.01;83.03;99602.59;5017840;28;20140;-72
2022/05/24 06:14:10;;;;;;;16.08;9.13;;;;;;;13.11;81.94;99613.75;5018143;28;20550;-72
2022/05/24 06:16:38;;;;;;;15.75;9.38;;;;;;;13.11;81.07;99613.75;5019082;28;20141;-72
2022/05/24 06:19:05;;;;;;;13.27;7.97;;;;;;;13.20;80.50;99623.31;5018892;28;20454;-72
2022/05/24 06:21:33;;;;;;;11.00;7.75;;;;;;;13.04;82.42;99621.84;5020082;28;20050;-72
2022/05/24 06:24:06;;;;;;;7.40;6.65;;;;;;;13.11;81.11;99624.53;5019765;28;20138;-72
2022/05/24 06:26:34;;;;;;;11.68;7.15;;;;;;;13.15;81.52;99631.19;5020856;28;20046;-72
2022/05/24 06:29:01;;;;;;;10.23;7.22;;;;;;;13.06;82.39;99637.78;5019723;28;20117;-72
2022/05/24 06:31:28;;;;;;;10.23;6.80;;;;;;;13.14;82.17;99645.66;5017962;28;20497;-72
2022/05/24 06:33:55;;;;;;;11.88;6.78;;;;;;;13.31;79.96;99652.34;5018531;28;20054;-72
2022/05/24 06:36:21;;;;;;;13.63;6.85;;;;;;;13.20;80.29;99660.19;5017906;28;20449;-72
2022/05/24 06:38:48;;;;;;;12.27;7.32;;;;;;;13.21;80.15;99657.28;5019716;28;20081;-72
2022/05/24 06:41:14;;;;;;;12.10;8.63;;;;;;;13.23;81.15;99657.94;5018474;28;20142;-72
2022/05/24 06:43:41;;;;;;;9.20;6.57;;;;;;;13.42;79.94;99658.16;5018192;28;20081;-71
2022/05/24 06:46:10;;;;;;;16.13;8.60;;;;;;;13.45;79.01;99669.34;5018003;28;20046;-71
2022/05/24 06:48:38;;;;;;;11.25;6.47;;;;;;;13.31;79.81;99665.81;5017653;28;20070;-71
2022/05/24 06:51:10;;;;;;;6.93;6.05;;;;;;;13.64;78.87;99675.81;5017676;28;20449;-71
2022/05/24 06:53:38;;;;;;;;;;;;;;;13.58;78.20;99673.94;5019006;28;20557;-72
2022/05/24 06:56:06;;;;;;;9.15;6.05;;;;;;;13.55;79.48;99674.34;5018119;28;20043;-72
2022/05/24 06:58:33;;;;;;;10.27;5.15;;;;;;;13.69;77.77;99684.09;5018739;28;20073;-71
2022/05/24 07:03:47;;;;;;;6.47;5.40;;;;;;;14.00;75.80;99694.31;5018629;28;20059;-71
2022/05/24 07:06:15;;;;;;;9.35;5.55;;;;;;;14.69;74.16;99702.94;5019138;28;20072;-71
2022/05/24 07:08:43;;;;;;;5.93;4.57;;;;;;;15.12;72.63;99708.63;5017062;28;20073;-72
2022/05/24 07:11:10;;;;;;;8.75;4.80;;;;;;;15.32;70.29;99713.09;5016390;28;20069;-72
2022/05/24 07:13:38;;;;;;;9.00;4.25;;;;;;;15.15;69.18;99723.56;5017244;28;20129;-71
2022/05/24 07:16:04;;;;;;;9.88;4.53;;;;;;;15.03;70.40;99723.41;5016469;28;20045;-71
2022/05/24 07:18:31;;;;;;;5.53;3.70;;;;;;;14.72;70.68;99729.53;5015623;28;20050;-71
2022/05/24 07:20:58;;;;;;;4.15;3.60;;;;;;;14.72;68.45;99730.38;5017276;28;20077;-72
2022/05/24 07:23:25;;;;;;;6.82;3.83;;;;;;;15.18;66.90;99723.13;5017273;28;20086;-72
2022/05/24 07:25:53;;;;;;;4.90;3.30;;;;;;;15.68;65.86;99726.03;5016404;28;20080;-72
2022/05/24 07:28:22;;;;;;;5.30;3.38;;;;;;;15.53;64.93;99720.03;5016163;28;20108;-71
2022/05/24 07:30:49;;;;;;;5.93;3.58;;;;;;;15.44;64.28;99739.22;5016920;28;20050;-72
2022/05/24 07:33:16;;;;;;;7.18;3.10;;;;;;;15.19;64.67;99739.16;5017522;28;20077;-72
2022/05/24 07:35:43;;;;;;;6.13;3.50;;;;;;;14.77;66.15;99733.28;5016796;28;20470;-71
2022/05/24 07:38:11;;;;;;;7.53;3.50;;;;;;;14.36;66.45;99746.16;5016479;28;20081;-71
2022/05/24 07:46:13;;;;;;;4.15;3.15;;;;;;;14.69;67.31;99756.94;5015997;28;20134;-71
2022/05/24 07:48:39;;;;;;;7.63;3.40;;;;;;;14.55;68.05;99758.81;5016735;28;20065;-72
2022/05/24 07:51:06;;;;;;;7.50;3.72;;;;;;;14.65;67.20;99761.91;5016049;28;20482;-72
2022/05/24 07:53:34;;;;;;;3.90;2.88;;;;;;;15.07;65.75;99759.75;5016417;28;20062;-72
2022/05/24 07:56:01;;;;;;;4.65;2.90;;;;;;;15.61;64.10;99761.19;5016087;28;20084;-72
2022/05/24 07:58:28;;;;;;;4.93;2.67;;;;;;;15.85;62.65;99753.38;5016365;28;20136;-72
2022/05/24 08:00:57;;;;;;;7.07;3.20;;;;;;;15.70;62.85;99765.31;5016067;28;20050;-72
2022/05/24 08:03:23;;;;;;;6.25;3.58;;;;;;;15.98;61.55;99758.69;5016305;28;20060;-72
2022/05/24 08:05:50;;;;;;;5.20;2.88;;;;;;;16.01;60.91;99765.53;5016459;28;20054;-72
2022/05/24 08:08:17;;;;;;;10.15;2.70;;;;;;;15.72;61.23;99775.91;5016265;28;20056;-72
2022/05/24 08:10:45;;;;;;;5.35;3.28;;;;;;;15.30;62.33;99782.75;5016310;28;20062;-73
2022/05/24 08:13:19;;;;;;;11.68;2.88;;;;;;;14.99;62.58;99778.91;5015819;28;20475;-73
2022/05/24 08:15:49;;;;;;;9.85;4.03;;;;;;;14.85;63.60;99790.78;5016273;28;20472;-73
2022/05/24 08:18:16;;;;;;;6.50;3.07;;;;;;;14.82;64.06;99796.63;5015833;28;20054;-73
2022/05/24 08:20:42;;;;;;;3.08;2.50;;;;;;;14.55;64.51;99804.69;5016182;28;20104;-73
2022/05/24 08:23:09;;;;;;;7.85;2.95;;;;;;;14.50;64.54;99796.41;5016058;28;20104;-73
2022/05/24 08:25:37;;;;;;;4.15;2.80;;;;;;;14.33;64.82;99806.78;5016921;28;20042;-71
2022/05/24 08:28:07;;;;;;;4.45;3.38;;;;;;;14.21;64.98;99795.78;5015564;28;20057;-72
2022/05/24 08:30:36;;;;;;;6.80;2.97;;;;;;;14.31;65.18;99816.94;5015090;28;20049;-72
2022/05/24 08:33:06;;;;;;;9.35;3.30;;;;;;;14.16;65.79;99821.72;5015522;28;20092;-72
2022/05/24 08:35:35;;;;;;;7.15;3.72;;;;;;;14.14;65.72;99823.78;5015757;28;20050;-72
2022/05/24 08:38:04;;;;;;;8.38;2.90;;;;;;;13.93;65.60;99825.59;5015418;28;20100;-72
2022/05/24 08:40:33;;;;;;;3.75;2.67;;;;;;;13.98;65.33;99828.53;5015748;28;20057;-72
2022/05/24 08:43:38;;;;;;;3.97;2.50;;;;;;;13.85;65.42;99841.16;5015888;28;20045;-72
2022/05/24 08:49:14;;;;;;;11.90;2.70;;;;;;;14.23;64.51;99828.78;5015540;28;20060;-72
2022/05/24 08:51:55;;;;;;;5.95;2.40;;;;;;;14.45;63.77;99837.50;5015638;28;20045;-72
2022/05/24 08:54:32;;;;;;;8.02;2.40;;;;;;;15.31;61.50;99841.16;5015950;28;20050;-72
2022/05/24 08:57:04;;;;;;;6.70;2.25;;;;;;;16.00;58.42;99837.75;5014783;28;20049;-72
2022/05/24 08:59:39;;;;;;;7.10;1.92;;;;;;;16.71;56.61;99822.25;5015306;28;20092;-73
2022/05/24 09:02:07;;;;;;;3.78;2.33;;;;;;;16.99;55.10;99825.31;5015879;28;20078;-72
2022/05/24 09:04:34;;;;;;;6.25;1.90;;;;;;;17.05;54.44;99829.81;5015786;28;20145;-73
2022/05/24 09:07:24;;;;;;;3.83;1.88;;;;;;;17.31;53.31;99836.00;5015104;28;20089;-73
2022/05/24 09:10:15;;;;;;;2.75;1.75;;;;;;;17.80;50.73;99832.28;5015699;28;20053;-72
2022/05/24 09:12:49;;;;;;;7.82;3.70;;;;;;;17.97;50.36;99834.38;5016469;28;20058;-72
2022/05/24 09:15:50;;;;;;;5.50;1.65;;;;;;;18.45;47.74;99822.59;5015687;28;20050;-71
2022/05/24 09:18:31;;;;;;;3.20;1.67;;;;;;;18.38;46.15;99832.75;5006521;28;20482;-72
2022/05/24 09:20:58;;;;;;;2.40;1.05;;;;;;;17.71;46.67;99832.84;5014999;28;20072;-73
2022/05/24 09:23:46;;;;;;;2.10;0.98;;;;;;;17.78;46.85;99830.84;5015266;28;20520;-71
2022/05/24 09:26:20;;;;;;;3.15;1.40;;;;;;;18.20;45.95;99836.34;5015032;28;20141;-71
2022/05/24 09:28:53;;;;;;;5.43;1.45;;;;;;;18.09;46.58;99844.19;5014371;28;20089;-71
2022/05/24 09:31:28;;;;;;;1.70;1.30;;;;;;;17.88;46.83;99858.28;5015597;28;20060;-73
2022/05/24 09:34:04;;;;;;;2.08;1.00;;;;;;;18.52;45.04;99859.44;5015668;28;20054;-72
2022/05/24 09:36:41;;;;;;;7.18;1.27;;;;;;;18.92;44.81;99858.78;5015723;28;20046;-72
2022/05/24 09:39:32;;;;;;;2.35;1.00;;;;;;;20.07;42.01;99848.13;5015445;28;20456;-72
2022/05/24 09:42:30;;;;;;;2.88;1.00;;;;;;;19.96;41.37;99839.78;5016451;28;20057;-71
2022/05/24 09:45:06;;;;;;;1.30;1.05;;;;;;;20.46;40.25;99830.06;5018451;28;20049;-73
2022/05/24 09:47:37;;;;;;;2.13;1.10;;;;;;;20.57;40.14;99833.78;5018532;28;20057;-72
2022/05/24 09:50:33;;;;;;;3.88;1.10;;;;;;;20.94;39.29;99833.25;5018541;28;20050;-72
2022/05/24 09:53:03;;;;;;;1.42;1.00;;;;;;;21.73;37.78;99831.03;5019377;28;20088;-72
2022/05/24 09:55:37;;;;;;;5.82;0.95;;;;;;;22.61;35.57;99832.75;5018235;28;20058;-72
2022/05/24 09:58:19;;;;;;;9.30;1.30;;;;;;;23.24;34.77;99836.47;5018124;28;20046;-73
2022/05/24 10:00:56;;;;;;;1.30;0.80;;;;;;;22.26;35.02;99836.81;5017936;28;20057;-72
2022/05/24 10:03:26;;;;;;;3.13;0.88;;;;;;;22.02;35.40;99844.50;5018541;28;20497;-73
2022/05/24 10:05:55;;;;;;;2.17;1.00;;;;;;;23.23;34.37;99846.59;5018980;28;20054;-73
2022/05/24 10:08:22;;;;;;;4.72;0.88;;;;;;;22.08;35.70;99847.03;5017947;28;20446;-73
2022/05/24 10:10:56;;;;;;;2.55;1.95;;;;;;;22.21;35.05;99843.03;5018167;28;20140;-73
2022/05/24 10:13:36;;;;;;;3.42;2.28;;;;;;;22.43;34.86;99836.66;5017524;28;20060;-72
2022/05/24 10:16:24;;;;;;;4.80;2.88;;;;;;;22.56;35.01;99833.50;5017430;28;20402;-71
2022/05/24 10:19:18;;;;;;;6.13;1.40;;;;;;;23.14;34.02;99842.69;5018600;28;20390;-72
2022/05/24 10:21:54;;;;;;;3.40;1.02;;;;;;;22.97;34.32;99828.34;5017343;28;20141;-72
2022/05/24 10:24:40;;;;;;;4.30;1.33;;;;;;;22.42;35.06;99826.81;5017254;28;20050;-72
2022/05/24 10:27:20;;;;;;;6.35;1.52;;;;;;;22.22;35.26;99830.19;5017028;28;20054;-73
2022/05/24 10:30:02;;;;;;;3.15;0.82;;;;;;;22.04;34.84;99832.19;5017132;28;20050;-72
2022/05/24 10:39:03;;;;;;;4.80;1.55;;;;;;;21.81;36.07;99822.44;5017070;28;20145;-72
2022/05/24 10:42:03;;;;;;;2.60;1.00;;;;;;;21.59;36.24;99838.78;5017656;28;20056;-73
2022/05/24 10:44:42;;;;;;;4.15;1.00;;;;;;;21.85;35.88;99830.94;5016982;28;20088;-72
2022/05/24 10:47:33;;;;;;;3.28;1.10;;;;;;;21.08;37.13;99843.56;5000306;28;20128;-73
2022/05/24 10:50:06;;;;;;;1.85;0.70;;;;;;;20.76;37.03;99837.88;5017262;28;20148;-72
2022/05/24 10:52:56;;;;;;;3.42;1.00;;;;;;;20.61;37.95;99837.66;5017097;28;20054;-72
2022/05/24 10:55:28;;;;;;;0.90;0.82;;;;;;;20.64;37.92;99831.72;5017107;28;20108;-73
2022/05/24 10:58:01;;;;;;;1.88;1.00;;;;;;;20.96;37.87;99829.19;5016933;28;20057;-73
2022/05/24 11:00:52;;;;;;;2.13;1.15;;;;;;;20.82;37.68;99820.53;5017476;28;20049;-73
2022/05/24 11:03:30;;;;;;;1.90;0.82;;;;;;;20.51;37.55;99821.97;5017260;28;20470;-73
2022/05/24 11:06:03;;;;;;;0.88;0.70;;;;;;;20.03;38.55;99828.75;5016920;28;20053;-73
2022/05/24 11:08:50;;;;;;;3.63;0.98;;;;;;;19.85;39.30;99829.78;5017109;28;20050;-73
2022/05/24 11:11:41;;;;;;;1.45;0.98;;;;;;;20.10;38.58;99826.69;5016914;28;20050;-73
2022/05/24 11:14:23;;;;;;;3.25;1.38;;;;;;;20.24;39.29;99831.81;5017878;28;20060;-74
2022/05/24 11:16:51;;;;;;;7.05;0.93;;;;;;;20.24;39.05;99832.66;5017076;28;20054;-74
2022/05/24 11:19:22;;;;;;;3.13;1.15;;;;;;;19.80;38.74;99826.97;5016162;28;20050;-74
2022/05/24 11:21:58;;;;;;;1.40;1.10;;;;;;;19.13;40.17;99829.34;5017674;28;20104;-74
2022/05/24 11:24:59;;;;;;;2.50;1.08;;;;;;;19.15;40.50;99835.38;5016453;28;20057;-74
2022/05/24 11:27:33;;;;;;;2.58;1.20;;;;;;;19.65;40.12;99834.78;5021095;28;20050;-76
2022/05/24 11:30:17;;;;;;;1.10;0.80;;;;;;;19.63;39.62;99836.94;5018280;28;20446;-77
2022/05/24 11:32:49;;;;;;;2.85;0.80;;;;;;;19.97;39.47;99837.91;5018077;28;20046;-76
2022/05/24 11:35:19;;;;;;;2.72;0.70;;;;;;;19.42;39.70;99847.41;5018215;28;20050;-76
2022/05/24 11:37:50;;;;;;;1.48;1.00;;;;;;;18.76;41.13;99848.63;5018110;28;20073;-77
2022/05/24 11:40:28;;;;;;;;;;;;;;;18.66;41.93;99843.75;5018760;28;20053;-76
2022/05/24 11:42:56;;;;;;;3.67;1.00;;;;;;;18.55;42.08;99852.72;5021106;28;20377;-77
2022/05/24 11:45:29;;;;;;;1.70;1.00;;;;;;;18.69;41.66;99853.34;5018543;28;20054;-78
2022/05/24 11:48:04;;;;;;;2.42;1.13;;;;;;;18.58;42.35;99857.66;5017355;28;20049;-78
2022/05/24 11:50:31;;;;;;;6.22;1.90;;;;;;;18.58;42.73;99859.56;5017527;28;20116;-78
2022/05/24 11:53:08;;;;;;;2.97;1.20;;;;;;;18.23;43.23;99855.72;5016559;28;20081;-77
2022/05/24 11:55:55;;;;;;;4.38;1.00;;;;;;;18.43;42.42;99863.56;5016924;28;20053;-76
2022/05/24 11:58:21;;;;;;;2.35;0.95;;;;;;;18.35;42.54;99866.63;5018028;28;20061;-76
2022/05/24 12:01:04;;;;;;;1.88;1.20;;;;;;;18.35;42.82;99866.63;5017122;28;20605;-76
2022/05/24 12:09:21;;;;;;;2.95;1.38;;;;;;;18.63;42.79;99876.81;5016577;28;20058;-76
2022/05/24 12:11:48;;;;;;;5.68;2.05;;;;;;;18.53;43.29;99871.97;5016030;28;20061;-77
2022/05/24 12:14:24;;;;;;;2.88;1.20;;;;;;;18.78;42.21;99873.63;5015502;28;20144;-76
2022/05/24 12:16:53;;;;;;;1.85;1.30;;;;;;;18.64;43.09;99872.22;5016032;28;20140;-76
2022/05/24 12:19:37;;;;;;;3.97;1.30;;;;;;;18.32;43.05;99877.94;5016310;28;20118;-76
2022/05/24 12:22:09;;;;;;;2.38;1.30;;;;;;;17.93;43.49;99876.59;5015931;28;20077;-76
2022/05/24 12:24:36;;;;;;;1.48;1.20;;;;;;;17.88;43.73;99879.97;5016121;28;20046;-76
2022/05/24 12:27:08;;;;;;;2.28;1.30;;;;;;;17.88;43.75;99877.25;5016105;28;20082;-76
2022/05/24 12:29:35;;;;;;;4.22;1.27;;;;;;;17.98;43.52;99879.44;5016096;28;20517;-75
2022/05/24 12:32:04;;;;;;;3.10;1.65;;;;;;;17.80;44.43;99883.00;5015774;28;20525;-77
2022/05/24 12:34:34;;;;;;;3.08;1.40;;;;;;;17.52;44.58;99894.41;5016195;28;20398;-76
2022/05/24 12:37:24;;;;;;;1.95;1.63;;;;;;;17.56;45.15;99895.63;5016713;28;20375;-76